sensor_id;sensor_type;location;lat;lon;timestamp;P1;durP1;ratioP1;P2;durP2;ratioP2
5945;SDS011;2998;48.206;16.394;2023-02-28T00:00:58;9.50;;;8.00;;
5945;SDS011;2998;48.206;16.394;2023-02-28T00:03:26;13.60;;;8.20;;
5945;SDS011;2998;48.206;16.394;2023-02-28T00:05:54;12.87;;;8.97;;
5945;SDS011;2998;48.206;16.394;2023-02-28T00:08:22;8.87;;;7.80;;
5945;SDS011;2998;48.206;16.394;2023-02-28T00:10:50;9.07;;;8.13;;
5945;SDS011;2998;48.206;16.394;2023-02-28T00:13:19;11.77;;;8.30;;
5945;SDS011;2998;48.206;16.394;2023-02-28T00:15:48;10.70;;;8.40;;
5945;SDS011;2998;48.206;16.394;2023-02-28T00:18:26;10.27;;;8.63;;
5945;SDS011;2998;48.206;16.394;2023-02-28T00:20:56;9.77;;;8.60;;
5945;SDS011;2998;48.206;16.394;2023-02-28T00:23:24;10.73;;;9.50;;
5945;SDS011;2998;48.206;16.394;2023-02-28T00:25:52;14.23;;;10.00;;
5945;SDS011;2998;48.206;16.394;2023-02-28T00:28:21;11.47;;;8.50;;
5945;SDS011;2998;48.206;16.394;2023-02-28T00:30:50;12.40;;;9.70;;
5945;SDS011;2998;48.206;16.394;2023-02-28T00:33:18;12.37;;;9.67;;
5945;SDS011;2998;48.206;16.394;2023-02-28T00:35:46;12.87;;;10.67;;
5945;SDS011;2998;48.206;16.394;2023-02-28T00:38:15;10.97;;;8.60;;
5945;SDS011;2998;48.206;16.394;2023-02-28T00:40:43;14.93;;;8.93;;
5945;SDS011;2998;48.206;16.394;2023-02-28T00:43:11;13.17;;;9.07;;
5945;SDS011;2998;48.206;16.394;2023-02-28T00:45:39;12.20;;;9.60;;
5945;SDS011;2998;48.206;16.394;2023-02-28T00:48:08;13.27;;;9.67;;
5945;SDS011;2998;48.206;16.394;2023-02-28T00:50:36;11.20;;;8.33;;
5945;SDS011;2998;48.206;16.394;2023-02-28T00:53:04;10.60;;;8.50;;
5945;SDS011;2998;48.206;16.394;2023-02-28T00:55:32;10.30;;;8.37;;
5945;SDS011;2998;48.206;16.394;2023-02-28T00:58:00;15.17;;;10.00;;
5945;SDS011;2998;48.206;16.394;2023-02-28T01:00:28;12.30;;;8.83;;
5945;SDS011;2998;48.206;16.394;2023-02-28T01:02:56;10.43;;;8.73;;
5945;SDS011;2998;48.206;16.394;2023-02-28T01:05:25;10.37;;;7.90;;
5945;SDS011;2998;48.206;16.394;2023-02-28T01:07:53;13.33;;;9.33;;
5945;SDS011;2998;48.206;16.394;2023-02-28T01:10:21;12.57;;;8.43;;
5945;SDS011;2998;48.206;16.394;2023-02-28T01:12:49;13.97;;;9.60;;
5945;SDS011;2998;48.206;16.394;2023-02-28T01:15:17;12.00;;;9.30;;
5945;SDS011;2998;48.206;16.394;2023-02-28T01:17:45;15.23;;;9.43;;
5945;SDS011;2998;48.206;16.394;2023-02-28T01:20:13;11.23;;;8.93;;
5945;SDS011;2998;48.206;16.394;2023-02-28T01:22:43;14.83;;;9.63;;
5945;SDS011;2998;48.206;16.394;2023-02-28T01:25:11;12.07;;;10.13;;
5945;SDS011;2998;48.206;16.394;2023-02-28T01:27:39;11.03;;;8.83;;
5945;SDS011;2998;48.206;16.394;2023-02-28T01:30:07;17.37;;;10.40;;
5945;SDS011;2998;48.206;16.394;2023-02-28T01:32:36;15.70;;;9.77;;
5945;SDS011;2998;48.206;16.394;2023-02-28T01:35:04;12.67;;;9.50;;
5945;SDS011;2998;48.206;16.394;2023-02-28T01:37:32;17.13;;;10.33;;
5945;SDS011;2998;48.206;16.394;2023-02-28T01:40:02;11.77;;;8.90;;
5945;SDS011;2998;48.206;16.394;2023-02-28T01:42:30;14.53;;;9.23;;
5945;SDS011;2998;48.206;16.394;2023-02-28T01:45:04;12.43;;;9.50;;
5945;SDS011;2998;48.206;16.394;2023-02-28T01:47:42;14.20;;;9.40;;
5945;SDS011;2998;48.206;16.394;2023-02-28T01:50:13;10.40;;;8.90;;
5945;SDS011;2998;48.206;16.394;2023-02-28T01:52:42;13.93;;;8.97;;
5945;SDS011;2998;48.206;16.394;2023-02-28T01:55:12;16.80;;;10.03;;
5945;SDS011;2998;48.206;16.394;2023-02-28T01:57:41;11.53;;;9.10;;
5945;SDS011;2998;48.206;16.394;2023-02-28T02:00:11;12.10;;;9.73;;
5945;SDS011;2998;48.206;16.394;2023-02-28T02:02:42;10.83;;;8.33;;
5945;SDS011;2998;48.206;16.394;2023-02-28T02:05:12;13.13;;;8.40;;
5945;SDS011;2998;48.206;16.394;2023-02-28T02:07:43;13.57;;;9.87;;
5945;SDS011;2998;48.206;16.394;2023-02-28T02:10:15;13.97;;;9.77;;
5945;SDS011;2998;48.206;16.394;2023-02-28T02:15:48;17.73;;;9.40;;
5945;SDS011;2998;48.206;16.394;2023-02-28T02:18:22;12.37;;;9.30;;
5945;SDS011;2998;48.206;16.394;2023-02-28T02:24:20;11.90;;;9.10;;
5945;SDS011;2998;48.206;16.394;2023-02-28T02:27:17;13.10;;;9.50;;
5945;SDS011;2998;48.206;16.394;2023-02-28T02:29:53;11.60;;;8.80;;
5945;SDS011;2998;48.206;16.394;2023-02-28T02:35:52;13.13;;;8.90;;
5945;SDS011;2998;48.206;16.394;2023-02-28T02:38:27;12.63;;;9.70;;
5945;SDS011;2998;48.206;16.394;2023-02-28T02:41:03;15.27;;;10.03;;
5945;SDS011;2998;48.206;16.394;2023-02-28T02:43:35;13.30;;;9.37;;
5945;SDS011;2998;48.206;16.394;2023-02-28T02:46:06;12.30;;;9.80;;
5945;SDS011;2998;48.206;16.394;2023-02-28T02:48:36;18.07;;;10.50;;
5945;SDS011;2998;48.206;16.394;2023-02-28T02:51:09;14.60;;;10.10;;
5945;SDS011;2998;48.206;16.394;2023-02-28T02:53:41;15.30;;;10.57;;
5945;SDS011;2998;48.206;16.394;2023-02-28T02:56:11;17.57;;;11.00;;
5945;SDS011;2998;48.206;16.394;2023-02-28T02:58:40;14.87;;;10.60;;
5945;SDS011;2998;48.206;16.394;2023-02-28T03:01:10;14.77;;;11.00;;
5945;SDS011;2998;48.206;16.394;2023-02-28T03:03:41;19.03;;;12.63;;
5945;SDS011;2998;48.206;16.394;2023-02-28T03:06:11;20.07;;;12.07;;
5945;SDS011;2998;48.206;16.394;2023-02-28T03:08:39;27.97;;;15.50;;
5945;SDS011;2998;48.206;16.394;2023-02-28T03:11:11;16.83;;;11.27;;
5945;SDS011;2998;48.206;16.394;2023-02-28T03:13:51;41.70;;;21.40;;
5945;SDS011;2998;48.206;16.394;2023-02-28T03:16:25;26.00;;;13.20;;
5945;SDS011;2998;48.206;16.394;2023-02-28T03:19:15;13.53;;;9.60;;
5945;SDS011;2998;48.206;16.394;2023-02-28T03:21:52;27.57;;;16.60;;
5945;SDS011;2998;48.206;16.394;2023-02-28T03:24:27;17.40;;;13.40;;
5945;SDS011;2998;48.206;16.394;2023-02-28T03:27:02;15.77;;;11.80;;
5945;SDS011;2998;48.206;16.394;2023-02-28T03:29:35;13.87;;;10.50;;
5945;SDS011;2998;48.206;16.394;2023-02-28T03:32:06;16.17;;;11.47;;
5945;SDS011;2998;48.206;16.394;2023-02-28T03:34:41;15.43;;;11.40;;
5945;SDS011;2998;48.206;16.394;2023-02-28T03:37:15;16.20;;;11.40;;
5945;SDS011;2998;48.206;16.394;2023-02-28T03:39:46;15.47;;;11.13;;
5945;SDS011;2998;48.206;16.394;2023-02-28T03:42:18;18.23;;;12.03;;
5945;SDS011;2998;48.206;16.394;2023-02-28T03:44:48;18.10;;;11.40;;
5945;SDS011;2998;48.206;16.394;2023-02-28T03:47:18;15.70;;;10.80;;
5945;SDS011;2998;48.206;16.394;2023-02-28T03:49:50;15.20;;;10.60;;
5945;SDS011;2998;48.206;16.394;2023-02-28T03:52:22;16.30;;;10.13;;
5945;SDS011;2998;48.206;16.394;2023-02-28T03:54:53;15.03;;;11.20;;
5945;SDS011;2998;48.206;16.394;2023-02-28T03:57:26;18.63;;;10.90;;
5945;SDS011;2998;48.206;16.394;2023-02-28T03:59:59;17.50;;;10.30;;
5945;SDS011;2998;48.206;16.394;2023-02-28T04:02:32;16.80;;;11.47;;
5945;SDS011;2998;48.206;16.394;2023-02-28T04:05:00;17.23;;;9.93;;
5945;SDS011;2998;48.206;16.394;2023-02-28T04:07:30;14.60;;;10.00;;
5945;SDS011;2998;48.206;16.394;2023-02-28T04:09:58;18.33;;;11.50;;
5945;SDS011;2998;48.206;16.394;2023-02-28T04:12:26;19.20;;;10.63;;
5945;SDS011;2998;48.206;16.394;2023-02-28T04:14:54;16.97;;;11.47;;
5945;SDS011;2998;48.206;16.394;2023-02-28T04:17:22;14.23;;;11.20;;
5945;SDS011;2998;48.206;16.394;2023-02-28T04:19:50;15.70;;;10.00;;
5945;SDS011;2998;48.206;16.394;2023-02-28T04:22:18;14.73;;;11.23;;
5945;SDS011;2998;48.206;16.394;2023-02-28T04:24:47;15.50;;;10.20;;
5945;SDS011;2998;48.206;16.394;2023-02-28T04:27:15;17.60;;;11.10;;
5945;SDS011;2998;48.206;16.394;2023-02-28T04:29:43;15.30;;;10.83;;
5945;SDS011;2998;48.206;16.394;2023-02-28T04:32:11;15.67;;;10.57;;
5945;SDS011;2998;48.206;16.394;2023-02-28T04:34:39;16.73;;;11.10;;
5945;SDS011;2998;48.206;16.394;2023-02-28T04:37:07;18.07;;;12.00;;
5945;SDS011;2998;48.206;16.394;2023-02-28T04:39:39;14.43;;;10.97;;
5945;SDS011;2998;48.206;16.394;2023-02-28T04:42:09;12.83;;;9.93;;
5945;SDS011;2998;48.206;16.394;2023-02-28T04:44:37;13.80;;;10.37;;
5945;SDS011;2998;48.206;16.394;2023-02-28T04:47:05;16.80;;;11.30;;
5945;SDS011;2998;48.206;16.394;2023-02-28T04:49:33;15.60;;;11.07;;
5945;SDS011;2998;48.206;16.394;2023-02-28T04:52:00;17.03;;;11.23;;
5945;SDS011;2998;48.206;16.394;2023-02-28T04:54:28;18.70;;;10.97;;
5945;SDS011;2998;48.206;16.394;2023-02-28T04:56:56;16.37;;;11.73;;
5945;SDS011;2998;48.206;16.394;2023-02-28T04:59:26;16.73;;;10.70;;
5945;SDS011;2998;48.206;16.394;2023-02-28T05:01:54;12.77;;;9.40;;
5945;SDS011;2998;48.206;16.394;2023-02-28T05:04:22;23.33;;;11.13;;
5945;SDS011;2998;48.206;16.394;2023-02-28T05:06:50;14.60;;;10.63;;
5945;SDS011;2998;48.206;16.394;2023-02-28T05:09:18;25.17;;;11.20;;
5945;SDS011;2998;48.206;16.394;2023-02-28T05:11:46;23.17;;;11.73;;
5945;SDS011;2998;48.206;16.394;2023-02-28T05:14:14;15.40;;;10.87;;
5945;SDS011;2998;48.206;16.394;2023-02-28T05:16:43;21.23;;;10.70;;
5945;SDS011;2998;48.206;16.394;2023-02-28T05:19:11;14.77;;;10.87;;
5945;SDS011;2998;48.206;16.394;2023-02-28T05:21:39;12.00;;;9.60;;
5945;SDS011;2998;48.206;16.394;2023-02-28T05:24:10;12.83;;;9.77;;
5945;SDS011;2998;48.206;16.394;2023-02-28T05:26:40;14.23;;;11.40;;
5945;SDS011;2998;48.206;16.394;2023-02-28T05:29:09;15.33;;;10.83;;
5945;SDS011;2998;48.206;16.394;2023-02-28T05:31:37;15.07;;;10.70;;
5945;SDS011;2998;48.206;16.394;2023-02-28T05:34:07;10.47;;;8.80;;
5945;SDS011;2998;48.206;16.394;2023-02-28T05:36:38;17.70;;;10.70;;
5945;SDS011;2998;48.206;16.394;2023-02-28T05:39:06;17.70;;;10.57;;
5945;SDS011;2998;48.206;16.394;2023-02-28T05:41:39;20.30;;;11.60;;
5945;SDS011;2998;48.206;16.394;2023-02-28T05:44:08;20.20;;;12.67;;
5945;SDS011;2998;48.206;16.394;2023-02-28T05:46:36;14.07;;;10.40;;
5945;SDS011;2998;48.206;16.394;2023-02-28T05:49:04;12.43;;;9.60;;
5945;SDS011;2998;48.206;16.394;2023-02-28T05:51:34;14.50;;;8.57;;
5945;SDS011;2998;48.206;16.394;2023-02-28T05:54:02;16.33;;;9.30;;
5945;SDS011;2998;48.206;16.394;2023-02-28T05:56:31;14.80;;;9.50;;
5945;SDS011;2998;48.206;16.394;2023-02-28T05:59:00;15.90;;;9.30;;
5945;SDS011;2998;48.206;16.394;2023-02-28T06:01:32;14.80;;;9.53;;
5945;SDS011;2998;48.206;16.394;2023-02-28T06:04:02;14.40;;;9.67;;
5945;SDS011;2998;48.206;16.394;2023-02-28T06:06:31;17.83;;;9.10;;
5945;SDS011;2998;48.206;16.394;2023-02-28T06:09:04;13.20;;;9.20;;
5945;SDS011;2998;48.206;16.394;2023-02-28T06:11:32;17.00;;;9.33;;
5945;SDS011;2998;48.206;16.394;2023-02-28T06:14:01;11.70;;;9.30;;
5945;SDS011;2998;48.206;16.394;2023-02-28T06:16:29;13.07;;;8.50;;
5945;SDS011;2998;48.206;16.394;2023-02-28T06:18:59;12.13;;;9.10;;
5945;SDS011;2998;48.206;16.394;2023-02-28T06:21:29;18.70;;;10.17;;
5945;SDS011;2998;48.206;16.394;2023-02-28T06:23:58;13.50;;;8.27;;
5945;SDS011;2998;48.206;16.394;2023-02-28T06:26:27;14.20;;;8.43;;
5945;SDS011;2998;48.206;16.394;2023-02-28T06:28:55;20.90;;;9.03;;
5945;SDS011;2998;48.206;16.394;2023-02-28T06:31:23;12.00;;;8.90;;
5945;SDS011;2998;48.206;16.394;2023-02-28T06:33:52;21.07;;;10.40;;
5945;SDS011;2998;48.206;16.394;2023-02-28T06:36:20;13.67;;;8.53;;
5945;SDS011;2998;48.206;16.394;2023-02-28T06:38:48;14.87;;;9.20;;
5945;SDS011;2998;48.206;16.394;2023-02-28T06:41:21;10.70;;;7.57;;
5945;SDS011;2998;48.206;16.394;2023-02-28T06:43:52;15.90;;;9.80;;
5945;SDS011;2998;48.206;16.394;2023-02-28T06:46:20;14.10;;;7.00;;
5945;SDS011;2998;48.206;16.394;2023-02-28T06:48:50;12.80;;;9.37;;
5945;SDS011;2998;48.206;16.394;2023-02-28T06:51:19;13.63;;;9.27;;
5945;SDS011;2998;48.206;16.394;2023-02-28T06:53:48;14.40;;;9.90;;
5945;SDS011;2998;48.206;16.394;2023-02-28T06:56:17;14.90;;;8.40;;
5945;SDS011;2998;48.206;16.394;2023-02-28T06:58:46;12.40;;;9.03;;
5945;SDS011;2998;48.206;16.394;2023-02-28T07:01:16;11.67;;;8.93;;
5945;SDS011;2998;48.206;16.394;2023-02-28T07:03:45;14.10;;;9.00;;
5945;SDS011;2998;48.206;16.394;2023-02-28T07:06:18;11.20;;;8.47;;
5945;SDS011;2998;48.206;16.394;2023-02-28T07:08:49;10.47;;;8.70;;
5945;SDS011;2998;48.206;16.394;2023-02-28T07:11:17;14.37;;;9.50;;
5945;SDS011;2998;48.206;16.394;2023-02-28T07:13:46;11.57;;;8.97;;
5945;SDS011;2998;48.206;16.394;2023-02-28T07:16:14;13.83;;;8.30;;
5945;SDS011;2998;48.206;16.394;2023-02-28T07:18:43;12.80;;;9.83;;
5945;SDS011;2998;48.206;16.394;2023-02-28T07:21:11;12.97;;;8.83;;
5945;SDS011;2998;48.206;16.394;2023-02-28T07:23:39;12.67;;;9.90;;
5945;SDS011;2998;48.206;16.394;2023-02-28T07:26:10;14.13;;;9.00;;
5945;SDS011;2998;48.206;16.394;2023-02-28T07:28:41;12.50;;;8.23;;
5945;SDS011;2998;48.206;16.394;2023-02-28T07:31:09;14.50;;;8.87;;
5945;SDS011;2998;48.206;16.394;2023-02-28T07:33:38;15.70;;;9.63;;
5945;SDS011;2998;48.206;16.394;2023-02-28T07:36:08;12.40;;;9.60;;
5945;SDS011;2998;48.206;16.394;2023-02-28T07:38:40;9.53;;;8.53;;
5945;SDS011;2998;48.206;16.394;2023-02-28T07:41:12;10.87;;;8.97;;
5945;SDS011;2998;48.206;16.394;2023-02-28T07:43:40;11.30;;;8.60;;
5945;SDS011;2998;48.206;16.394;2023-02-28T07:46:08;12.00;;;9.53;;
5945;SDS011;2998;48.206;16.394;2023-02-28T07:48:38;9.63;;;8.63;;
5945;SDS011;2998;48.206;16.394;2023-02-28T07:51:07;19.83;;;10.33;;
5945;SDS011;2998;48.206;16.394;2023-02-28T07:53:35;12.50;;;9.07;;
5945;SDS011;2998;48.206;16.394;2023-02-28T07:56:03;13.70;;;10.10;;
5945;SDS011;2998;48.206;16.394;2023-02-28T07:58:32;14.33;;;10.43;;
5945;SDS011;2998;48.206;16.394;2023-02-28T08:01:04;14.23;;;9.80;;
5945;SDS011;2998;48.206;16.394;2023-02-28T08:03:33;15.43;;;11.03;;
5945;SDS011;2998;48.206;16.394;2023-02-28T08:06:01;15.40;;;10.37;;
5945;SDS011;2998;48.206;16.394;2023-02-28T08:08:31;13.60;;;11.10;;
5945;SDS011;2998;48.206;16.394;2023-02-28T08:11:00;11.77;;;9.60;;
5945;SDS011;2998;48.206;16.394;2023-02-28T08:13:29;12.13;;;10.70;;
5945;SDS011;2998;48.206;16.394;2023-02-28T08:15:58;17.27;;;11.17;;
5945;SDS011;2998;48.206;16.394;2023-02-28T08:18:26;13.30;;;10.47;;
5945;SDS011;2998;48.206;16.394;2023-02-28T08:20:54;15.13;;;10.40;;
5945;SDS011;2998;48.206;16.394;2023-02-28T08:23:22;12.20;;;9.50;;
5945;SDS011;2998;48.206;16.394;2023-02-28T08:25:55;15.63;;;10.80;;
5945;SDS011;2998;48.206;16.394;2023-02-28T08:28:23;15.87;;;10.10;;
5945;SDS011;2998;48.206;16.394;2023-02-28T08:30:53;12.23;;;9.50;;
5945;SDS011;2998;48.206;16.394;2023-02-28T08:33:22;14.03;;;10.80;;
5945;SDS011;2998;48.206;16.394;2023-02-28T08:35:52;10.53;;;9.43;;
5945;SDS011;2998;48.206;16.394;2023-02-28T08:38:21;13.93;;;10.63;;
5945;SDS011;2998;48.206;16.394;2023-02-28T08:40:49;16.17;;;11.00;;
5945;SDS011;2998;48.206;16.394;2023-02-28T08:43:18;15.77;;;11.77;;
5945;SDS011;2998;48.206;16.394;2023-02-28T08:45:46;11.80;;;10.43;;
5945;SDS011;2998;48.206;16.394;2023-02-28T08:48:14;16.77;;;11.40;;
5945;SDS011;2998;48.206;16.394;2023-02-28T08:50:45;18.27;;;11.00;;
5945;SDS011;2998;48.206;16.394;2023-02-28T08:53:30;17.27;;;10.97;;
5945;SDS011;2998;48.206;16.394;2023-02-28T08:55:58;14.67;;;11.53;;
5945;SDS011;2998;48.206;16.394;2023-02-28T08:58:29;15.53;;;11.93;;
5945;SDS011;2998;48.206;16.394;2023-02-28T09:00:57;18.30;;;13.53;;
5945;SDS011;2998;48.206;16.394;2023-02-28T09:03:27;15.70;;;12.63;;
5945;SDS011;2998;48.206;16.394;2023-02-28T09:05:55;14.60;;;11.73;;
5945;SDS011;2998;48.206;16.394;2023-02-28T09:08:25;17.90;;;13.33;;
5945;SDS011;2998;48.206;16.394;2023-02-28T09:10:58;15.20;;;12.43;;
5945;SDS011;2998;48.206;16.394;2023-02-28T09:13:29;17.90;;;11.30;;
5945;SDS011;2998;48.206;16.394;2023-02-28T09:15:58;16.30;;;12.67;;
5945;SDS011;2998;48.206;16.394;2023-02-28T09:18:27;16.23;;;13.27;;
5945;SDS011;2998;48.206;16.394;2023-02-28T09:20:55;16.13;;;12.80;;
5945;SDS011;2998;48.206;16.394;2023-02-28T09:23:25;16.13;;;12.57;;
5945;SDS011;2998;48.206;16.394;2023-02-28T09:25:53;19.33;;;13.17;;
5945;SDS011;2998;48.206;16.394;2023-02-28T09:28:22;14.17;;;11.83;;
5945;SDS011;2998;48.206;16.394;2023-02-28T09:30:52;18.90;;;12.53;;
5945;SDS011;2998;48.206;16.394;2023-02-28T09:33:21;15.57;;;12.70;;
5945;SDS011;2998;48.206;16.394;2023-02-28T09:35:50;17.27;;;11.87;;
5945;SDS011;2998;48.206;16.394;2023-02-28T09:38:18;16.00;;;12.40;;
5945;SDS011;2998;48.206;16.394;2023-02-28T09:40:47;15.43;;;12.07;;
5945;SDS011;2998;48.206;16.394;2023-02-28T09:43:17;20.40;;;12.67;;
5945;SDS011;2998;48.206;16.394;2023-02-28T09:45:48;14.50;;;12.43;;
5945;SDS011;2998;48.206;16.394;2023-02-28T09:48:20;15.93;;;12.53;;
5945;SDS011;2998;48.206;16.394;2023-02-28T09:50:52;18.37;;;13.90;;
5945;SDS011;2998;48.206;16.394;2023-02-28T09:53:25;16.33;;;13.03;;
5945;SDS011;2998;48.206;16.394;2023-02-28T09:55:55;16.33;;;12.40;;
5945;SDS011;2998;48.206;16.394;2023-02-28T09:58:27;19.10;;;13.27;;
5945;SDS011;2998;48.206;16.394;2023-02-28T10:00:59;15.40;;;11.90;;
5945;SDS011;2998;48.206;16.394;2023-02-28T10:03:32;17.13;;;12.90;;
5945;SDS011;2998;48.206;16.394;2023-02-28T10:06:05;16.60;;;14.00;;
5945;SDS011;2998;48.206;16.394;2023-02-28T10:08:36;14.53;;;12.30;;
5945;SDS011;2998;48.206;16.394;2023-02-28T10:11:09;15.83;;;13.60;;
5945;SDS011;2998;48.206;16.394;2023-02-28T10:13:41;18.10;;;13.30;;
5945;SDS011;2998;48.206;16.394;2023-02-28T10:16:20;18.60;;;11.83;;
5945;SDS011;2998;48.206;16.394;2023-02-28T10:18:54;17.37;;;13.17;;
5945;SDS011;2998;48.206;16.394;2023-02-28T10:21:26;21.90;;;14.40;;
5945;SDS011;2998;48.206;16.394;2023-02-28T10:23:59;18.57;;;13.30;;
5945;SDS011;2998;48.206;16.394;2023-02-28T10:26:32;16.93;;;13.67;;
5945;SDS011;2998;48.206;16.394;2023-02-28T10:29:00;14.57;;;12.40;;
5945;SDS011;2998;48.206;16.394;2023-02-28T10:31:29;19.80;;;14.37;;
5945;SDS011;2998;48.206;16.394;2023-02-28T10:33:58;20.03;;;14.50;;
5945;SDS011;2998;48.206;16.394;2023-02-28T10:36:26;16.80;;;13.73;;
5945;SDS011;2998;48.206;16.394;2023-02-28T10:38:55;19.80;;;12.97;;
5945;SDS011;2998;48.206;16.394;2023-02-28T10:41:29;20.10;;;14.00;;
5945;SDS011;2998;48.206;16.394;2023-02-28T10:44:14;20.73;;;13.53;;
5945;SDS011;2998;48.206;16.394;2023-02-28T10:46:45;17.30;;;14.13;;
5945;SDS011;2998;48.206;16.394;2023-02-28T10:49:17;16.10;;;14.30;;
5945;SDS011;2998;48.206;16.394;2023-02-28T10:51:46;17.20;;;14.70;;
5945;SDS011;2998;48.206;16.394;2023-02-28T10:54:17;18.17;;;13.33;;
5945;SDS011;2998;48.206;16.394;2023-02-28T10:56:51;16.33;;;12.17;;
5945;SDS011;2998;48.206;16.394;2023-02-28T10:59:35;18.33;;;13.67;;
5945;SDS011;2998;48.206;16.394;2023-02-28T11:02:07;16.97;;;13.60;;
5945;SDS011;2998;48.206;16.394;2023-02-28T11:05:01;19.07;;;13.00;;
5945;SDS011;2998;48.206;16.394;2023-02-28T11:07:29;23.73;;;14.70;;
5945;SDS011;2998;48.206;16.394;2023-02-28T11:10:17;21.93;;;15.10;;
5945;SDS011;2998;48.206;16.394;2023-02-28T11:12:47;16.40;;;12.90;;
5945;SDS011;2998;48.206;16.394;2023-02-28T11:15:21;17.27;;;13.97;;
5945;SDS011;2998;48.206;16.394;2023-02-28T11:17:54;16.80;;;13.53;;
5945;SDS011;2998;48.206;16.394;2023-02-28T11:20:26;19.80;;;13.60;;
5945;SDS011;2998;48.206;16.394;2023-02-28T11:22:56;21.53;;;15.20;;
5945;SDS011;2998;48.206;16.394;2023-02-28T11:25:25;17.43;;;14.00;;
5945;SDS011;2998;48.206;16.394;2023-02-28T11:27:56;18.27;;;13.80;;
5945;SDS011;2998;48.206;16.394;2023-02-28T11:30:30;19.00;;;13.80;;
5945;SDS011;2998;48.206;16.394;2023-02-28T11:33:00;19.20;;;14.23;;
5945;SDS011;2998;48.206;16.394;2023-02-28T11:35:31;18.13;;;14.13;;
5945;SDS011;2998;48.206;16.394;2023-02-28T11:38:02;18.80;;;14.87;;
5945;SDS011;2998;48.206;16.394;2023-02-28T11:40:33;19.07;;;14.80;;
5945;SDS011;2998;48.206;16.394;2023-02-28T11:43:08;21.37;;;15.83;;
5945;SDS011;2998;48.206;16.394;2023-02-28T11:45:45;21.13;;;14.40;;
5945;SDS011;2998;48.206;16.394;2023-02-28T11:48:23;16.60;;;13.63;;
5945;SDS011;2998;48.206;16.394;2023-02-28T11:50:57;19.13;;;14.60;;
5945;SDS011;2998;48.206;16.394;2023-02-28T11:53:51;17.63;;;14.87;;
5945;SDS011;2998;48.206;16.394;2023-02-28T11:56:28;18.30;;;14.73;;
5945;SDS011;2998;48.206;16.394;2023-02-28T11:59:02;15.40;;;12.97;;
5945;SDS011;2998;48.206;16.394;2023-02-28T12:01:44;23.97;;;15.97;;
5945;SDS011;2998;48.206;16.394;2023-02-28T12:04:31;18.63;;;15.17;;
5945;SDS011;2998;48.206;16.394;2023-02-28T12:07:07;18.10;;;13.47;;
5945;SDS011;2998;48.206;16.394;2023-02-28T12:09:42;20.67;;;15.63;;
5945;SDS011;2998;48.206;16.394;2023-02-28T12:12:25;22.03;;;14.50;;
5945;SDS011;2998;48.206;16.394;2023-02-28T12:15:17;20.47;;;15.80;;
5945;SDS011;2998;48.206;16.394;2023-02-28T12:17:59;21.37;;;15.40;;
5945;SDS011;2998;48.206;16.394;2023-02-28T12:20:36;19.37;;;14.23;;
5945;SDS011;2998;48.206;16.394;2023-02-28T12:23:15;16.53;;;12.97;;
5945;SDS011;2998;48.206;16.394;2023-02-28T12:25:56;18.00;;;14.83;;
5945;SDS011;2998;48.206;16.394;2023-02-28T12:28:30;20.30;;;14.53;;
5945;SDS011;2998;48.206;16.394;2023-02-28T12:31:03;31.67;;;15.90;;
5945;SDS011;2998;48.206;16.394;2023-02-28T12:33:34;33.40;;;15.93;;
5945;SDS011;2998;48.206;16.394;2023-02-28T12:36:05;21.83;;;16.37;;
5945;SDS011;2998;48.206;16.394;2023-02-28T12:38:40;23.30;;;16.97;;
5945;SDS011;2998;48.206;16.394;2023-02-28T12:41:10;21.57;;;14.57;;
5945;SDS011;2998;48.206;16.394;2023-02-28T12:43:42;20.23;;;15.80;;
5945;SDS011;2998;48.206;16.394;2023-02-28T12:46:12;18.93;;;15.97;;
5945;SDS011;2998;48.206;16.394;2023-02-28T12:48:43;26.00;;;16.77;;
5945;SDS011;2998;48.206;16.394;2023-02-28T12:51:13;23.30;;;17.27;;
5945;SDS011;2998;48.206;16.394;2023-02-28T12:53:49;24.67;;;16.73;;
5945;SDS011;2998;48.206;16.394;2023-02-28T12:56:21;22.13;;;16.13;;
5945;SDS011;2998;48.206;16.394;2023-02-28T12:58:56;18.37;;;16.10;;
5945;SDS011;2998;48.206;16.394;2023-02-28T13:04:52;23.50;;;16.97;;
5945;SDS011;2998;48.206;16.394;2023-02-28T13:07:39;20.73;;;16.00;;
5945;SDS011;2998;48.206;16.394;2023-02-28T13:10:18;23.57;;;15.57;;
5945;SDS011;2998;48.206;16.394;2023-02-28T13:12:47;22.77;;;15.20;;
5945;SDS011;2998;48.206;16.394;2023-02-28T13:15:17;23.37;;;16.60;;
5945;SDS011;2998;48.206;16.394;2023-02-28T13:17:51;26.17;;;16.13;;
5945;SDS011;2998;48.206;16.394;2023-02-28T13:20:20;22.17;;;16.80;;
5945;SDS011;2998;48.206;16.394;2023-02-28T13:22:49;18.57;;;15.80;;
5945;SDS011;2998;48.206;16.394;2023-02-28T13:34:41;17.30;;;15.13;;
5945;SDS011;2998;48.206;16.394;2023-02-28T13:43:08;17.50;;;13.27;;
5945;SDS011;2998;48.206;16.394;2023-02-28T13:45:36;18.07;;;15.00;;
5945;SDS011;2998;48.206;16.394;2023-02-28T13:48:15;18.60;;;14.60;;
5945;SDS011;2998;48.206;16.394;2023-02-28T13:50:45;15.90;;;13.63;;
5945;SDS011;2998;48.206;16.394;2023-02-28T13:53:26;19.10;;;13.17;;
5945;SDS011;2998;48.206;16.394;2023-02-28T13:56:06;19.17;;;14.77;;
5945;SDS011;2998;48.206;16.394;2023-02-28T13:58:42;17.13;;;14.87;;
5945;SDS011;2998;48.206;16.394;2023-02-28T14:01:31;20.97;;;14.53;;
5945;SDS011;2998;48.206;16.394;2023-02-28T14:04:14;14.67;;;12.63;;
5945;SDS011;2998;48.206;16.394;2023-02-28T14:06:59;19.17;;;14.50;;
5945;SDS011;2998;48.206;16.394;2023-02-28T14:09:28;18.77;;;14.67;;
5945;SDS011;2998;48.206;16.394;2023-02-28T14:11:58;20.50;;;12.90;;
5945;SDS011;2998;48.206;16.394;2023-02-28T14:15:23;17.90;;;13.20;;
5945;SDS011;2998;48.206;16.394;2023-02-28T14:17:55;20.53;;;13.83;;
5945;SDS011;2998;48.206;16.394;2023-02-28T14:20:24;19.87;;;14.27;;
5945;SDS011;2998;48.206;16.394;2023-02-28T14:22:57;17.67;;;14.20;;
5945;SDS011;2998;48.206;16.394;2023-02-28T14:25:30;18.33;;;15.90;;
5945;SDS011;2998;48.206;16.394;2023-02-28T14:28:08;17.33;;;15.43;;
5945;SDS011;2998;48.206;16.394;2023-02-28T14:30:48;32.80;;;14.30;;
5945;SDS011;2998;48.206;16.394;2023-02-28T14:33:29;22.60;;;12.47;;
5945;SDS011;2998;48.206;16.394;2023-02-28T14:36:10;18.30;;;13.53;;
5945;SDS011;2998;48.206;16.394;2023-02-28T14:38:42;18.70;;;14.47;;
5945;SDS011;2998;48.206;16.394;2023-02-28T14:41:14;17.80;;;14.27;;
5945;SDS011;2998;48.206;16.394;2023-02-28T14:43:49;17.67;;;13.50;;
5945;SDS011;2998;48.206;16.394;2023-02-28T14:46:20;16.33;;;13.47;;
5945;SDS011;2998;48.206;16.394;2023-02-28T14:48:49;17.37;;;13.73;;
5945;SDS011;2998;48.206;16.394;2023-02-28T14:51:18;17.70;;;13.80;;
5945;SDS011;2998;48.206;16.394;2023-02-28T14:53:49;24.73;;;14.40;;
5945;SDS011;2998;48.206;16.394;2023-02-28T14:56:22;14.50;;;13.00;;
5945;SDS011;2998;48.206;16.394;2023-02-28T14:58:51;15.17;;;13.03;;
5945;SDS011;2998;48.206;16.394;2023-02-28T15:01:22;17.50;;;13.37;;
5945;SDS011;2998;48.206;16.394;2023-02-28T15:03:59;21.87;;;14.40;;
5945;SDS011;2998;48.206;16.394;2023-02-28T15:06:29;19.63;;;14.93;;
5945;SDS011;2998;48.206;16.394;2023-02-28T15:09:07;14.83;;;12.47;;
5945;SDS011;2998;48.206;16.394;2023-02-28T15:11:41;18.93;;;13.27;;
5945;SDS011;2998;48.206;16.394;2023-02-28T15:14:15;20.77;;;13.60;;
5945;SDS011;2998;48.206;16.394;2023-02-28T15:16:47;17.00;;;12.63;;
5945;SDS011;2998;48.206;16.394;2023-02-28T15:19:19;17.13;;;13.23;;
5945;SDS011;2998;48.206;16.394;2023-02-28T15:21:49;19.10;;;13.50;;
5945;SDS011;2998;48.206;16.394;2023-02-28T15:24:19;19.50;;;11.93;;
5945;SDS011;2998;48.206;16.394;2023-02-28T15:26:53;18.87;;;13.13;;
5945;SDS011;2998;48.206;16.394;2023-02-28T15:29:24;19.90;;;13.80;;
5945;SDS011;2998;48.206;16.394;2023-02-28T15:31:57;16.10;;;13.80;;